Time;durP1;ratioP1;P1;durP2;ratioP2;P2;SDS_P1;SDS_P2;PMS_P1;PMS_P2;Temp;Humidity;BMP_temperature;BMP_pressure;BME280_temperature;BME280_humidity;BME280_pressure;Samples;Min_cycle;Max_cycle;Signal;HPM_P1;HPM_P2
2021/09/19 00:00:24;;;;;;;11.18;7.43;;;;;;;15.85;100.00;101459.63;5073503;28;20069;-61
2021/09/19 00:02:50;;;;;;;11.48;7.50;;;;;;;15.89;100.00;101462.75;5074041;28;20070;-61
2021/09/19 00:05:16;;;;;;;12.98;8.15;;;;;;;15.84;100.00;101462.56;5073685;28;20045;-62
2021/09/19 00:07:42;;;;;;;12.63;7.30;;;;;;;15.81;100.00;101463.78;5059441;28;20119;-61
2021/09/19 00:10:10;;;;;;;15.05;7.90;;;;;;;15.76;100.00;101458.22;5076630;28;20457;-62
2021/09/19 00:12:37;;;;;;;12.67;7.60;;;;;;;15.76;100.00;101466.31;5073503;28;20430;-62
2021/09/19 00:15:04;;;;;;;11.97;7.77;;;;;;;15.73;100.00;101459.47;5073929;28;20360;-63
2021/09/19 00:17:30;;;;;;;10.70;7.70;;;;;;;15.74;100.00;101461.13;5073323;28;20253;-61
2021/09/19 00:19:55;;;;;;;17.03;7.57;;;;;;;15.68;100.00;101458.44;5083563;28;20272;-62
2021/09/19 00:22:21;;;;;;;10.90;7.53;;;;;;;15.66;100.00;101449.75;5087401;28;20039;-61
2021/09/19 00:24:46;;;;;;;10.30;7.82;;;;;;;15.60;100.00;101449.56;5083626;28;20364;-62
2021/09/19 00:27:11;;;;;;;11.93;8.10;;;;;;;15.60;100.00;101457.66;5065175;28;20067;-61
2021/09/19 00:29:37;;;;;;;11.80;7.80;;;;;;;15.56;100.00;101442.13;5050223;28;20756;-61
2021/09/19 00:32:03;;;;;;;11.93;8.45;;;;;;;15.55;100.00;101445.84;5081032;28;20433;-61
2021/09/19 00:34:29;;;;;;;12.77;8.07;;;;;;;15.47;100.00;101445.06;5065455;28;20047;-61
2021/09/19 00:36:55;;;;;;;12.27;8.73;;;;;;;15.52;100.00;101439.03;5083439;28;20028;-61
2021/09/19 00:39:20;;;;;;;12.70;8.65;;;;;;;15.52;100.00;101433.66;5055344;28;20135;-60
2021/09/19 00:41:46;;;;;;;14.95;9.18;;;;;;;15.56;100.00;101444.81;5083703;28;20479;-60
2021/09/19 00:44:11;;;;;;;12.93;9.40;;;;;;;15.55;100.00;101437.78;5082664;28;20046;-61
2021/09/19 00:46:37;;;;;;;15.48;9.98;;;;;;;15.51;100.00;101447.34;5081787;28;20090;-62
2021/09/19 00:49:04;;;;;;;17.10;10.57;;;;;;;15.46;100.00;101439.91;5083654;28;20036;-61
2021/09/19 00:51:32;;;;;;;15.67;10.87;;;;;;;15.43;100.00;101440.31;5082100;28;20052;-60
2021/09/19 00:53:57;;;;;;;16.27;10.00;;;;;;;15.41;100.00;101442.38;5082461;28;20342;-59
2021/09/19 00:56:26;;;;;;;16.63;10.75;;;;;;;15.41;100.00;101437.00;5070064;28;20658;-61
2021/09/19 00:58:52;;;;;;;14.73;10.73;;;;;;;15.32;100.00;101434.56;5092093;28;20039;-62
2021/09/19 01:01:19;;;;;;;14.93;10.27;;;;;;;15.25;100.00;101432.91;5081459;28;20360;-62
2021/09/19 01:03:45;;;;;;;15.75;10.88;;;;;;;15.23;100.00;101430.44;5064595;28;20363;-60
2021/09/19 01:06:12;;;;;;;19.05;12.40;;;;;;;15.20;100.00;101431.69;5081245;28;20100;-61
2021/09/19 01:08:42;;;;;;;20.57;12.67;;;;;;;15.20;100.00;101428.16;5083026;28;20077;-60
2021/09/19 01:11:10;;;;;;;18.10;11.67;;;;;;;15.25;100.00;101438.31;5064077;28;20293;-57
2021/09/19 01:13:39;;;;;;;17.03;11.47;;;;;;;15.22;100.00;101428.78;5082479;28;21320;-60
2021/09/19 01:16:05;;;;;;;17.47;11.70;;;;;;;15.18;100.00;101433.78;5081250;28;20284;-62
2021/09/19 01:18:32;;;;;;;18.15;12.88;;;;;;;15.14;100.00;101429.84;5081243;28;20257;-61
2021/09/19 01:20:57;;;;;;;16.13;11.87;;;;;;;15.10;100.00;101430.47;5065000;28;20066;-61
2021/09/19 01:23:23;;;;;;;20.05;13.50;;;;;;;15.10;100.00;101430.47;5062162;28;20332;-59
2021/09/19 01:25:49;;;;;;;19.55;13.43;;;;;;;15.09;100.00;101429.63;5086461;28;20385;-58
2021/09/19 01:28:15;;;;;;;23.65;14.77;;;;;;;15.14;100.00;101437.09;5063148;28;20356;-61
2021/09/19 01:30:41;;;;;;;22.85;14.38;;;;;;;15.10;100.00;101433.97;5077505;28;20123;-61
2021/09/19 01:33:07;;;;;;;24.55;14.63;;;;;;;15.13;100.00;101438.13;5072921;28;20089;-61
2021/09/19 01:35:33;;;;;;;20.80;14.30;;;;;;;15.08;100.00;101432.56;5072540;28;20080;-62
2021/09/19 01:37:59;;;;;;;20.42;14.80;;;;;;;15.11;100.00;101435.66;5072814;28;20096;-62
2021/09/19 01:40:26;;;;;;;23.63;14.35;;;;;;;15.03;100.00;101423.25;5038190;28;20052;-61
2021/09/19 01:42:52;;;;;;;20.53;14.50;;;;;;;15.09;100.00;101421.56;5074668;28;20029;-62
2021/09/19 01:45:18;;;;;;;21.20;15.05;;;;;;;15.03;100.00;101419.72;5059038;28;20827;-62
2021/09/19 01:47:43;;;;;;;20.83;15.07;;;;;;;15.00;100.00;101418.28;5058325;28;20040;-61
2021/09/19 01:50:10;;;;;;;21.27;14.75;;;;;;;14.99;100.00;101416.63;5076621;28;20037;-61
2021/09/19 01:52:35;;;;;;;19.85;14.50;;;;;;;14.95;100.00;101410.00;5073615;28;20043;-61
2021/09/19 01:55:01;;;;;;;24.17;14.65;;;;;;;14.92;100.00;101410.41;5079714;28;20040;-61
2021/09/19 01:57:27;;;;;;;21.02;14.77;;;;;;;14.92;100.00;101413.09;5073066;28;20459;-60
2021/09/19 01:59:54;;;;;;;21.95;14.57;;;;;;;14.84;100.00;101405.25;5064425;28;20043;-60
2021/09/19 02:02:20;;;;;;;26.10;15.63;;;;;;;14.84;100.00;101413.34;5096631;28;20411;-61
2021/09/19 02:04:47;;;;;;;26.40;16.27;;;;;;;14.85;100.00;101401.53;5077672;28;20280;-60
2021/09/19 02:07:13;;;;;;;20.95;15.55;;;;;;;14.83;100.00;101409.81;5087856;28;20468;-61
2021/09/19 02:09:38;;;;;;;26.08;16.25;;;;;;;14.77;100.00;101395.34;5075519;28;20118;-61
2021/09/19 02:12:04;;;;;;;23.52;15.82;;;;;;;14.81;100.00;101395.72;5076093;28;20071;-61
2021/09/19 02:14:31;;;;;;;21.52;15.30;;;;;;;14.80;100.00;101399.47;5057880;28;20036;-61
2021/09/19 02:16:56;;;;;;;;;;;;;;;14.77;100.00;101395.34;5090927;28;20036;-61
2021/09/19 02:19:22;;;;;;;20.37;14.87;;;;;;;14.73;100.00;101394.06;5077824;28;20279;-61
2021/09/19 02:21:47;;;;;;;23.93;15.93;;;;;;;14.67;100.00;101389.50;5095899;28;20201;-61
2021/09/19 02:24:13;;;;;;;24.45;15.35;;;;;;;14.71;100.00;101398.03;5095821;28;20263;-61
2021/09/19 02:26:39;;;;;;;24.55;14.48;;;;;;;14.67;100.00;101386.81;5096252;28;20425;-60
2021/09/19 02:29:05;;;;;;;23.75;16.58;;;;;;;14.67;100.00;101384.13;5077607;28;20449;-61
2021/09/19 02:31:31;;;;;;;30.27;18.88;;;;;;;14.67;100.00;101386.00;5095783;28;20043;-61
2021/09/19 02:33:58;;;;;;;29.52;17.50;;;;;;;14.64;100.00;101379.16;5091819;28;20504;-62
2021/09/19 02:36:23;;;;;;;;;;;;;;;14.65;100.00;101391.59;5075418;28;20094;-61
2021/09/19 02:38:49;;;;;;;25.77;17.27;;;;;;;14.63;100.00;101382.91;5075060;28;20244;-61
2021/09/19 02:41:15;;;;;;;26.83;16.15;;;;;;;14.60;100.00;101388.69;5072991;28;20017;-62
2021/09/19 02:43:40;;;;;;;26.25;15.90;;;;;;;14.59;100.00;101389.75;5095290;28;20508;-62
2021/09/19 02:46:06;;;;;;;26.00;17.35;;;;;;;14.54;100.00;101384.97;5095673;28;20364;-62
2021/09/19 02:48:31;;;;;;;25.33;17.37;;;;;;;14.55;100.00;101381.25;5077990;28;20127;-61
2021/09/19 02:50:59;;;;;;;26.95;19.08;;;;;;;14.55;100.00;101380.44;5095809;28;20478;-61
2021/09/19 02:53:25;;;;;;;27.40;19.17;;;;;;;14.51;100.00;101380.00;5094745;28;20040;-61
2021/09/19 02:55:50;;;;;;;25.90;17.58;;;;;;;14.48;100.00;101378.56;5095407;28;20625;-61
2021/09/19 02:58:16;;;;;;;29.63;18.73;;;;;;;14.48;100.00;101375.84;5042927;28;20054;-61
2021/09/19 03:00:41;;;;;;;33.78;19.17;;;;;;;14.51;100.00;101373.78;5074634;28;20178;-61
2021/09/19 03:03:07;;;;;;;27.10;18.43;;;;;;;14.48;100.00;101377.75;5075244;28;20369;-62
2021/09/19 03:05:33;;;;;;;29.95;19.67;;;;;;;14.42;100.00;101371.31;5075276;28;20299;-62
2021/09/19 03:07:58;;;;;;;29.97;18.20;;;;;;;14.43;100.00;101372.97;5074724;28;20067;-61
2021/09/19 03:10:24;;;;;;;28.30;18.83;;;;;;;14.43;100.00;101367.59;5075396;28;20274;-62
2021/09/19 03:12:49;;;;;;;30.00;19.30;;;;;;;14.40;100.00;101368.00;5040825;28;20349;-61
2021/09/19 03:15:15;;;;;;;25.55;18.15;;;;;;;14.41;100.00;101369.66;5057101;28;20472;-61
2021/09/19 03:17:40;;;;;;;28.65;17.90;;;;;;;14.36;100.00;101364.09;5074649;28;20045;-61
2021/09/19 03:20:08;;;;;;;27.60;18.30;;;;;;;14.33;100.00;101368.00;5074740;28;20036;-61
2021/09/19 03:22:34;;;;;;;26.23;17.53;;;;;;;14.33;100.00;101362.63;5074588;28;20108;-61
2021/09/19 03:24:59;;;;;;;27.20;18.20;;;;;;;14.34;100.00;101363.47;5074181;28;20399;-61
2021/09/19 03:27:25;;;;;;;28.80;18.73;;;;;;;14.31;100.00;101362.00;5057478;28;20032;-61
2021/09/19 03:29:50;;;;;;;29.77;18.60;;;;;;;14.32;100.00;101371.72;5075026;28;20094;-61
2021/09/19 03:32:16;;;;;;;32.13;18.83;;;;;;;14.31;100.00;101369.28;5074218;28;20040;-61
2021/09/19 03:34:41;;;;;;;34.33;20.60;;;;;;;14.35;100.00;101370.50;5056377;28;20776;-58
2021/09/19 03:37:07;;;;;;;30.87;19.00;;;;;;;14.32;100.00;101371.72;5074287;28;20740;-62
2021/09/19 03:39:32;;;;;;;30.30;19.80;;;;;;;14.30;100.00;101372.97;5074343;28;20040;-62
2021/09/19 03:41:58;;;;;;;29.50;17.97;;;;;;;14.25;100.00;101375.47;5073986;28;20067;-61
2021/09/19 03:44:23;;;;;;;32.78;18.08;;;;;;;14.27;100.00;101376.06;5074465;28;20364;-62
2021/09/19 03:46:49;;;;;;;33.13;19.77;;;;;;;14.23;100.00;101366.78;5074285;28;20028;-61
2021/09/19 03:49:14;;;;;;;26.67;17.90;;;;;;;14.19;100.00;101366.38;5056571;28;20654;-61
2021/09/19 03:51:40;;;;;;;26.93;17.50;;;;;;;14.23;100.00;101378.38;5056507;28;20757;-63
2021/09/19 03:54:05;;;;;;;30.48;18.92;;;;;;;14.17;100.00;101373.78;5073854;28;20033;-62
2021/09/19 03:56:31;;;;;;;32.37;19.70;;;;;;;14.15;100.00;101371.31;5056884;28;20119;-61
2021/09/19 03:58:56;;;;;;;28.58;18.95;;;;;;;14.16;100.00;101372.97;5056682;28;20044;-63
2021/09/19 04:01:22;;;;;;;32.78;19.33;;;;;;;14.19;100.00;101367.19;5074476;28;20056;-61
2021/09/19 04:03:48;;;;;;;30.67;20.70;;;;;;;14.14;100.00;101375.06;5074490;28;20056;-61
2021/09/19 04:06:13;;;;;;;30.63;19.80;;;;;;;14.11;100.00;101371.94;5074502;28;20488;-61
2021/09/19 04:08:39;;;;;;;32.60;20.30;;;;;;;14.10;100.00;101381.88;5074068;28;20472;-61
2021/09/19 04:11:04;;;;;;;33.70;19.23;;;;;;;14.06;100.00;101377.94;5073967;28;20040;-62
2021/09/19 04:13:30;;;;;;;30.90;19.70;;;;;;;14.02;100.00;101374.00;5073981;28;20128;-61
2021/09/19 04:15:55;;;;;;;30.33;19.63;;;;;;;14.01;100.00;101377.72;5073464;28;20032;-62
2021/09/19 04:18:21;;;;;;;30.33;19.33;;;;;;;14.01;100.00;101383.94;5074184;28;20308;-62
2021/09/19 04:20:46;;;;;;;30.93;19.03;;;;;;;13.97;100.00;101379.16;5073748;28;20666;-60
2021/09/19 04:23:12;;;;;;;31.45;19.90;;;;;;;13.93;100.00;101377.94;5074141;28;20051;-62
2021/09/19 04:25:37;;;;;;;32.95;20.73;;;;;;;13.93;100.00;101376.03;5074197;28;20480;-62
2021/09/19 04:28:03;;;;;;;28.70;18.98;;;;;;;13.90;100.00;101373.78;5073387;28;20044;-62
2021/09/19 04:30:29;;;;;;;33.45;20.50;;;;;;;13.95;100.00;101373.16;5073454;28;20037;-62
2021/09/19 04:32:54;;;;;;;34.85;20.45;;;;;;;13.93;100.00;101381.41;5073754;28;20479;-62
2021/09/19 04:35:20;;;;;;;32.50;20.38;;;;;;;13.95;100.00;101381.22;5055673;28;20445;-62
2021/09/19 04:37:45;;;;;;;37.53;22.00;;;;;;;13.95;100.00;101384.72;5073473;28;20039;-63
2021/09/19 04:40:11;;;;;;;31.48;20.83;;;;;;;13.94;100.00;101380.38;5073527;28;20408;-63
2021/09/19 04:42:37;;;;;;;31.05;20.15;;;;;;;13.92;100.00;101371.69;5055582;28;20093;-62
2021/09/19 04:45:06;;;;;;;36.13;22.17;;;;;;;13.95;100.00;101373.16;5074860;28;20056;-62
2021/09/19 04:47:32;;;;;;;32.73;21.43;;;;;;;13.97;100.00;101380.00;5040032;28;20281;-62
2021/09/19 04:49:57;;;;;;;35.55;21.63;;;;;;;13.90;100.00;101374.63;5073289;28;20334;-63
2021/09/19 04:52:23;;;;;;;35.35;21.13;;;;;;;13.95;100.00;101382.03;5073605;28;20495;-61
2021/09/19 04:54:48;;;;;;;36.00;21.65;;;;;;;13.99;100.00;101377.09;5073062;28;20140;-63
2021/09/19 04:57:14;;;;;;;32.63;19.95;;;;;;;13.97;100.00;101377.31;5073461;28;20064;-62
2021/09/19 04:59:39;;;;;;;34.67;19.88;;;;;;;14.01;100.00;101375.03;5073393;28;20468;-63
2021/09/19 05:02:05;;;;;;;48.33;26.77;;;;;;;14.02;100.00;101363.25;5073104;28;20052;-63
2021/09/19 05:04:31;;;;;;;30.48;20.77;;;;;;;14.02;100.00;101364.09;5073042;28;20048;-63
2021/09/19 05:06:56;;;;;;;40.78;23.25;;;;;;;14.06;100.00;101367.16;5072775;28;20079;-62
2021/09/19 05:09:22;;;;;;;40.60;23.83;;;;;;;14.05;100.00;101360.13;5072996;28;20477;-61
2021/09/19 05:11:48;;;;;;;31.87;20.80;;;;;;;14.04;100.00;101361.16;5072882;28;20454;-62
2021/09/19 05:14:13;;;;;;;40.05;24.13;;;;;;;14.07;100.00;101359.94;5072824;28;20293;-62
2021/09/19 05:16:39;;;;;;;38.50;19.75;;;;;;;14.09;100.00;101361.41;5072727;28;20525;-61
2021/09/19 05:19:05;;;;;;;34.03;20.30;;;;;;;14.12;100.00;101362.84;5072438;28;20041;-61
2021/09/19 05:21:30;;;;;;;47.53;26.40;;;;;;;14.15;100.00;101370.47;5072995;28;20400;-61
2021/09/19 05:23:56;;;;;;;36.58;22.80;;;;;;;14.16;100.00;101367.59;5055150;28;20071;-60
2021/09/19 05:26:21;;;;;;;38.80;23.70;;;;;;;14.13;100.00;101359.09;5073138;28;20488;-62
2021/09/19 05:28:47;;;;;;;38.15;22.38;;;;;;;14.19;100.00;101359.13;5055358;28;20043;-62
2021/09/19 05:31:13;;;;;;;32.60;19.87;;;;;;;14.20;100.00;101362.66;5054569;28;20076;-61
2021/09/19 05:33:39;;;;;;;29.13;18.40;;;;;;;14.24;100.00;101368.41;5055364;28;20072;-62
2021/09/19 05:36:04;;;;;;;;;;;;;;;14.24;100.00;101363.03;5073090;28;20040;-61
2021/09/19 05:38:30;;;;;;;36.10;20.10;;;;;;;14.24;100.00;101358.50;5072858;28;19912;-61
2021/09/19 05:40:56;;;;;;;33.67;19.55;;;;;;;14.24;100.00;101360.34;5038140;28;20115;-62
2021/09/19 05:43:22;;;;;;;32.33;19.67;;;;;;;14.25;100.00;101365.53;5072866;28;20041;-61
2021/09/19 05:45:47;;;;;;;31.65;18.27;;;;;;;14.25;100.00;101359.31;5072859;28;20399;-61
2021/09/19 05:48:13;;;;;;;27.33;17.48;;;;;;;14.29;100.00;101365.94;5072768;28;20076;-60
2021/09/19 05:50:38;;;;;;;28.50;16.90;;;;;;;14.29;100.00;101368.63;5072659;28;20123;-62
2021/09/19 05:53:04;;;;;;;29.40;18.20;;;;;;;14.35;100.00;101370.50;5072483;28;20320;-60
2021/09/19 05:55:29;;;;;;;33.90;19.27;;;;;;;14.36;100.00;101371.31;5073416;28;20098;-62
2021/09/19 05:57:55;;;;;;;28.77;17.70;;;;;;;14.38;100.00;101386.22;5072663;28;20086;-61
2021/09/19 06:00:20;;;;;;;30.10;17.60;;;;;;;14.38;100.00;101380.84;5054889;28;20342;-61
2021/09/19 06:02:46;;;;;;;32.80;19.13;;;;;;;14.42;100.00;101384.78;5072868;28;20396;-61
2021/09/19 06:05:12;;;;;;;27.90;18.33;;;;;;;14.42;100.00;101381.28;5072597;28;20437;-62
2021/09/19 06:07:38;;;;;;;27.88;17.83;;;;;;;14.44;100.00;101382.69;5054760;28;20733;-61
2021/09/19 06:10:05;;;;;;;27.58;16.95;;;;;;;14.45;100.00;101375.47;5064569;28;20082;-61
2021/09/19 06:12:31;;;;;;;29.43;18.53;;;;;;;14.49;100.00;101388.28;5088959;28;20043;-61
2021/09/19 06:14:57;;;;;;;32.50;17.70;;;;;;;14.51;100.00;101392.63;5075547;28;20290;-57
2021/09/19 06:17:22;;;;;;;25.45;15.45;;;;;;;14.54;100.00;101393.03;5079107;28;20040;-61
2021/09/19 06:19:49;;;;;;;26.80;16.20;;;;;;;14.51;100.00;101388.09;5088292;28;20044;-61
2021/09/19 06:22:15;;;;;;;21.73;14.50;;;;;;;14.59;100.00;101395.13;5092262;28;20033;-61
2021/09/19 06:24:41;;;;;;;24.60;16.50;;;;;;;14.66;100.00;101395.94;5092729;28;20276;-62
2021/09/19 06:27:07;;;;;;;21.13;13.75;;;;;;;14.62;100.00;101397.38;5092317;28;20086;-60
2021/09/19 06:29:32;;;;;;;23.07;13.90;;;;;;;14.66;100.00;101393.25;5094003;28;20044;-62
2021/09/19 06:31:58;;;;;;;20.65;13.27;;;;;;;14.67;100.00;101397.59;5093278;28;20483;-62
2021/09/19 06:34:23;;;;;;;25.00;15.40;;;;;;;14.67;100.00;101400.28;5089810;28;20520;-62
2021/09/19 06:36:49;;;;;;;34.70;20.58;;;;;;;14.72;100.00;101403.19;5066160;28;20047;-62
2021/09/19 06:39:14;;;;;;;25.10;15.43;;;;;;;14.74;100.00;101397.63;5086222;28;20064;-62
2021/09/19 06:41:40;;;;;;;30.13;15.90;;;;;;;14.79;100.00;101402.38;5083639;28;20048;-61
2021/09/19 06:44:05;;;;;;;21.13;13.27;;;;;;;14.81;100.00;101400.31;5085998;28;20058;-61
2021/09/19 06:46:32;;;;;;;21.73;13.90;;;;;;;14.83;100.00;101396.34;5086384;28;20609;-62
2021/09/19 06:49:00;;;;;;;21.43;14.17;;;;;;;14.83;100.00;101400.91;5064202;28;20067;-62
2021/09/19 06:51:26;;;;;;;23.17;15.23;;;;;;;14.89;100.00;101402.75;5085797;28;20273;-62
2021/09/19 06:53:52;;;;;;;23.20;14.57;;;;;;;14.86;100.00;101395.09;5047883;28;20339;-61
2021/09/19 06:56:20;;;;;;;23.30;15.30;;;;;;;14.96;100.00;101403.56;5084242;28;20109;-62
2021/09/19 06:58:46;;;;;;;20.00;12.53;;;;;;;15.01;100.00;101406.47;5084666;28;20260;-61
2021/09/19 07:01:12;;;;;;;24.13;13.95;;;;;;;15.08;100.00;101400.22;5082627;28;20324;-60
2021/09/19 07:03:37;;;;;;;19.95;13.07;;;;;;;15.08;100.00;101395.66;5066532;28;20472;-63
2021/09/19 07:06:02;;;;;;;19.37;12.60;;;;;;;15.12;100.00;101398.75;5082256;28;20056;-61
2021/09/19 07:08:28;;;;;;;26.60;15.00;;;;;;;15.17;100.00;101399.78;5066454;28;20287;-62
2021/09/19 07:10:54;;;;;;;23.98;15.57;;;;;;;15.26;100.00;101397.69;5065581;28;20115;-63
2021/09/19 07:13:23;;;;;;;18.45;12.27;;;;;;;15.29;100.00;101397.25;5082916;28;20032;-63
2021/09/19 07:15:52;;;;;;;21.13;12.50;;;;;;;15.34;100.00;101412.78;5063812;28;20117;-62
2021/09/19 07:18:22;;;;;;;17.27;12.10;;;;;;;15.42;100.00;101406.31;5048958;28;20257;-62
2021/09/19 07:20:49;;;;;;;16.43;12.03;;;;;;;15.44;100.00;101409.63;5066032;28;20356;-63
2021/09/19 07:23:15;;;;;;;18.13;12.30;;;;;;;15.51;100.00;101407.75;5081973;28;20257;-61
2021/09/19 07:25:41;;;;;;;18.10;11.55;;;;;;;15.57;100.00;101414.13;5083070;28;20643;-61
2021/09/19 07:28:07;;;;;;;19.55;11.88;;;;;;;15.60;100.00;101421.81;5083499;28;20025;-62
2021/09/19 07:30:33;;;;;;;19.48;12.60;;;;;;;15.71;100.00;101414.91;5081779;28;20104;-62
2021/09/19 07:33:00;;;;;;;17.67;11.77;;;;;;;15.76;100.00;101412.38;5081517;28;20055;-62
2021/09/19 07:35:26;;;;;;;16.30;10.90;;;;;;;15.92;100.00;101429.94;5048786;28;20032;-63
2021/09/19 07:37:52;;;;;;;18.02;10.77;;;;;;;15.97;100.00;101423.91;5082788;28;20740;-61
2021/09/19 07:40:18;;;;;;;18.67;11.32;;;;;;;16.01;100.00;101427.81;5063123;28;20036;-64
2021/09/19 07:42:44;;;;;;;14.27;10.45;;;;;;;16.15;100.00;101429.41;5084124;28;20442;-61
2021/09/19 07:45:10;;;;;;;16.10;10.82;;;;;;;16.24;100.00;101429.94;5064260;28;20040;-61
2021/09/19 07:47:36;;;;;;;16.27;10.13;;;;;;;16.34;100.00;101426.75;5081992;28;20024;-61
2021/09/19 07:50:03;;;;;;;14.40;9.38;;;;;;;16.43;100.00;101432.69;5083376;28;20318;-61
2021/09/19 07:52:29;;;;;;;19.37;9.80;;;;;;;16.60;100.00;101430.28;5081680;28;20032;-62
2021/09/19 07:54:54;;;;;;;16.00;9.18;;;;;;;16.63;100.00;101421.75;5083818;28;20285;-62
2021/09/19 07:57:21;;;;;;;12.50;8.93;;;;;;;16.75;100.00;101436.16;5082179;28;20032;-63
2021/09/19 07:59:49;;;;;;;10.70;8.37;;;;;;;16.93;100.00;101437.25;5081308;28;20273;-62
2021/09/19 08:02:14;;;;;;;13.37;9.33;;;;;;;17.00;100.00;101434.50;5063867;28;20277;-62
2021/09/19 08:04:40;;;;;;;16.35;8.70;;;;;;;16.99;100.00;101433.69;5082680;28;20695;-62
2021/09/19 08:07:05;;;;;;;11.50;8.43;;;;;;;17.09;100.00;101435.06;5081531;28;20145;-62
2021/09/19 08:09:31;;;;;;;13.95;8.15;;;;;;;17.16;100.00;101435.78;5080879;28;20076;-60
2021/09/19 08:11:56;;;;;;;13.20;8.13;;;;;;;17.31;100.00;101441.66;5068626;28;20025;-62
2021/09/19 08:14:22;;;;;;;12.40;8.23;;;;;;;17.46;100.00;101440.44;5085000;28;20290;-62
2021/09/19 08:16:48;;;;;;;16.20;9.98;;;;;;;17.58;100.00;101449.44;5080674;28;20045;-62
2021/09/19 08:19:14;;;;;;;15.37;10.80;;;;;;;17.65;100.00;101443.09;5051012;28;20066;-62
2021/09/19 08:21:41;;;;;;;11.55;7.97;;;;;;;17.79;100.00;101450.00;5093283;28;20487;-62
2021/09/19 08:24:08;;;;;;;14.43;9.40;;;;;;;17.87;100.00;101456.94;5092153;28;20450;-61
2021/09/19 08:26:35;;;;;;;13.97;8.50;;;;;;;17.80;100.00;101445.41;5064534;28;20028;-62
2021/09/19 08:29:00;;;;;;;10.67;7.27;;;;;;;17.88;100.00;101445.91;5082180;28;20317;-63
2021/09/19 08:31:26;;;;;;;11.55;7.13;;;;;;;17.96;100.00;101449.34;5083671;28;20031;-62
2021/09/19 08:33:51;;;;;;;12.13;7.68;;;;;;;18.05;100.00;101454.22;5062779;28;20086;-62
2021/09/19 08:36:18;;;;;;;13.80;7.82;;;;;;;18.32;100.00;101453.00;5072406;28;20094;-62
2021/09/19 08:38:44;;;;;;;10.87;7.00;;;;;;;18.55;100.00;101448.69;5091386;28;20069;-63
2021/09/19 08:41:09;;;;;;;11.98;8.02;;;;;;;18.80;100.00;101442.22;5092699;28;20039;-63
2021/09/19 08:43:35;;;;;;;9.82;6.70;;;;;;;18.85;100.00;101442.31;5074755;28;20060;-62
2021/09/19 08:46:01;;;;;;;9.35;6.72;;;;;;;19.18;100.00;101446.34;5093000;28;20036;-63
2021/09/19 08:48:28;;;;;;;10.93;7.65;;;;;;;19.56;100.00;101447.63;5057911;28;20568;-62
2021/09/19 08:50:54;;;;;;;12.50;6.03;;;;;;;19.76;100.00;101452.66;5092333;28;20043;-63
2021/09/19 08:53:28;;;;;;;;;;;;;;;19.62;100.00;101452.13;5057631;28;20047;-62
2021/09/19 08:55:54;;;;;;;12.00;6.70;;;;;;;19.58;100.00;101448.22;5092683;28;20492;-63
2021/09/19 08:58:19;;;;;;;7.53;5.55;;;;;;;19.72;100.00;101454.22;5092164;28;20031;-62
2021/09/19 09:00:49;;;;;;;8.38;6.13;;;;;;;19.63;100.00;101461.91;5092491;28;20046;-62
2021/09/19 09:03:23;;;;;;;9.30;6.20;;;;;;;19.62;100.00;101459.41;5092724;28;20036;-63
2021/09/19 09:06:02;;;;;;;9.23;6.13;;;;;;;19.78;100.00;101455.09;5074747;28;20052;-62
2021/09/19 09:08:28;;;;;;;10.07;6.03;;;;;;;20.08;100.00;101458.66;5092861;28;20035;-63
2021/09/19 09:10:56;;;;;;;8.23;5.30;;;;;;;20.30;100.00;101458.78;5074532;28;20107;-63
2021/09/19 09:13:25;;;;;;;12.13;5.77;;;;;;;20.70;100.00;101465.94;5092453;28;20039;-62
2021/09/19 09:16:00;;;;;;;17.17;10.63;;;;;;;20.74;100.00;101464.34;5074287;28;20055;-62
2021/09/19 09:18:33;;;;;;;10.65;6.68;;;;;;;20.96;100.00;101452.72;5074433;28;20198;-62
2021/09/19 09:21:06;;;;;;;10.10;6.17;;;;;;;22.68;100.00;101458.91;5092613;28;20036;-64
2021/09/19 09:23:43;;;;;;;8.67;6.07;;;;;;;22.31;100.00;101463.25;5074751;28;20146;-62
2021/09/19 09:26:22;;;;;;;9.07;5.70;;;;;;;22.97;100.00;101463.19;5092925;28;20509;-63
2021/09/19 09:28:50;;;;;;;8.03;5.40;;;;;;;24.05;97.13;101465.50;5092982;28;20089;-62
2021/09/19 09:31:39;;;;;;;6.27;4.30;;;;;;;25.06;81.65;101467.59;5092506;28;20020;-63
2021/09/19 09:34:16;;;;;;;8.87;3.80;;;;;;;25.96;72.17;101472.41;5081844;28;20048;-65
2021/09/19 09:36:52;;;;;;;6.10;3.20;;;;;;;26.05;69.65;101472.59;5092110;28;20064;-62
2021/09/19 09:39:22;;;;;;;5.93;3.30;;;;;;;26.42;66.60;101464.94;5085591;28;20090;-63
2021/09/19 09:41:48;;;;;;;7.70;3.17;;;;;;;26.91;61.73;101472.16;5081300;28;20556;-62
2021/09/19 09:44:27;;;;;;;6.50;2.95;;;;;;;26.70;63.20;101465.22;5048214;28;20036;-60
2021/09/19 09:46:53;;;;;;;6.40;2.95;;;;;;;27.22;61.14;101470.97;5092602;28;20032;-63
2021/09/19 09:50:03;;;;;;;6.30;3.45;;;;;;;27.80;58.49;101469.13;5067300;28;20376;-63
2021/09/19 09:52:31;;;;;;;8.63;2.90;;;;;;;28.31;55.39;101467.50;5067459;28;20057;-63
2021/09/19 09:54:58;;;;;;;5.05;3.28;;;;;;;28.17;54.28;101464.72;5080181;28;20470;-61
2021/09/19 09:57:35;;;;;;;5.70;3.25;;;;;;;27.62;55.15;101463.31;5080737;28;20063;-62
2021/09/19 10:00:06;;;;;;;4.32;2.60;;;;;;;27.73;54.98;101476.94;5080593;28;20468;-59
2021/09/19 10:02:37;;;;;;;4.50;2.85;;;;;;;27.46;55.39;101475.63;5090863;28;20048;-63
2021/09/19 10:05:07;;;;;;;9.10;3.08;;;;;;;27.24;55.41;101481.66;5084563;28;20477;-63
2021/09/19 10:07:37;;;;;;;5.50;2.70;;;;;;;27.44;55.01;101478.66;5083678;28;20031;-63
2021/09/19 10:10:06;;;;;;;5.68;3.33;;;;;;;28.40;53.92;101480.56;5087485;28;20079;-63
2021/09/19 10:12:32;;;;;;;5.78;2.60;;;;;;;29.05;50.66;101490.66;5085762;28;20052;-62
2021/09/19 10:14:58;;;;;;;5.78;3.00;;;;;;;29.45;48.10;101483.81;5096162;28;20063;-62
2021/09/19 10:17:27;;;;;;;4.50;2.55;;;;;;;29.56;47.57;101488.00;5095325;28;20028;-63
2021/09/19 10:19:54;;;;;;;4.13;2.72;;;;;;;30.15;45.90;101486.41;5096089;28;20071;-64
2021/09/19 10:22:48;;;;;;;2.83;2.42;;;;;;;30.11;45.77;101482.63;5077455;28;20384;-64
2021/09/19 10:25:26;;;;;;;3.45;2.42;;;;;;;30.14;45.46;101482.00;5059530;28;20106;-63
2021/09/19 10:27:52;;;;;;;2.92;2.25;;;;;;;30.61;45.14;101484.41;5075547;28;20036;-63
2021/09/19 10:30:18;;;;;;;3.80;2.72;;;;;;;31.13;43.01;101485.72;5075258;28;20043;-60
2021/09/19 10:32:47;;;;;;;6.03;2.65;;;;;;;30.66;43.65;101483.47;5040689;28;20076;-64
2021/09/19 10:35:15;;;;;;;4.70;2.58;;;;;;;31.50;42.13;101491.06;5067693;28;20028;-62
2021/09/19 10:37:50;;;;;;;8.65;2.58;;;;;;;31.12;41.71;101489.63;5083462;28;20064;-61
2021/09/19 10:40:42;;;;;;;5.33;2.57;;;;;;;30.25;43.80;101497.16;5050358;28;20036;-61
2021/09/19 10:43:21;;;;;;;6.15;2.95;;;;;;;30.03;43.65;101486.97;5051551;28;20404;-62
2021/09/19 10:45:51;;;;;;;4.82;3.33;;;;;;;30.41;43.07;101488.50;5082893;28;20055;-61
2021/09/19 10:48:25;;;;;;;5.45;2.92;;;;;;;29.98;43.45;101485.09;5067210;28;20539;-63
2021/09/19 10:51:01;;;;;;;3.65;2.67;;;;;;;30.04;43.52;101483.06;5084337;28;20051;-62
2021/09/19 10:53:27;;;;;;;4.85;2.67;;;;;;;31.03;41.98;101484.09;5083022;28;20029;-63
2021/09/19 10:55:52;;;;;;;3.83;3.15;;;;;;;31.78;40.39;101482.47;5083430;28;20078;-63
2021/09/19 10:58:32;;;;;;;5.75;3.42;;;;;;;32.44;39.58;101481.44;5085280;28;20032;-63
2021/09/19 11:01:11;;;;;;;5.75;2.75;;;;;;;33.37;37.83;101491.94;5084999;28;20084;-61
2021/09/19 11:03:39;;;;;;;3.90;2.40;;;;;;;34.12;36.33;101484.81;5082367;28;20036;-63
2021/09/19 11:06:05;;;;;;;7.65;2.83;;;;;;;33.59;36.12;101496.34;5081420;28;20123;-62